sensor_id;sensor_type;location;lat;lon;timestamp;P1;durP1;ratioP1;P2;durP2;ratioP2
80409;SDS011;69746;45.596;10.154;2023-05-29T00:01:27;11.75;;;5.63;;
80409;SDS011;69746;45.596;10.154;2023-05-29T00:03:53;10.13;;;5.80;;
80409;SDS011;69746;45.596;10.154;2023-05-29T00:06:21;8.23;;;5.53;;
80409;SDS011;69746;45.596;10.154;2023-05-29T00:08:48;11.20;;;5.30;;
80409;SDS011;69746;45.596;10.154;2023-05-29T00:11:14;8.82;;;5.43;;
80409;SDS011;69746;45.596;10.154;2023-05-29T00:13:40;8.48;;;5.82;;
80409;SDS011;69746;45.596;10.154;2023-05-29T00:16:09;11.73;;;5.68;;
80409;SDS011;69746;45.596;10.154;2023-05-29T00:18:36;9.18;;;5.63;;
80409;SDS011;69746;45.596;10.154;2023-05-29T00:21:01;8.68;;;5.60;;
80409;SDS011;69746;45.596;10.154;2023-05-29T00:23:29;10.55;;;5.60;;
80409;SDS011;69746;45.596;10.154;2023-05-29T00:25:56;9.88;;;6.07;;
80409;SDS011;69746;45.596;10.154;2023-05-29T00:28:22;9.30;;;5.15;;
80409;SDS011;69746;45.596;10.154;2023-05-29T00:30:48;9.18;;;5.97;;
80409;SDS011;69746;45.596;10.154;2023-05-29T00:33:14;6.95;;;5.15;;
80409;SDS011;69746;45.596;10.154;2023-05-29T00:35:40;8.38;;;5.82;;
80409;SDS011;69746;45.596;10.154;2023-05-29T00:38:09;10.38;;;5.38;;
80409;SDS011;69746;45.596;10.154;2023-05-29T00:40:35;9.68;;;5.53;;
80409;SDS011;69746;45.596;10.154;2023-05-29T00:43:01;9.68;;;5.45;;
80409;SDS011;69746;45.596;10.154;2023-05-29T00:45:27;8.95;;;5.38;;
80409;SDS011;69746;45.596;10.154;2023-05-29T00:47:53;9.10;;;5.50;;
80409;SDS011;69746;45.596;10.154;2023-05-29T00:50:25;9.88;;;5.47;;
80409;SDS011;69746;45.596;10.154;2023-05-29T00:52:52;9.65;;;5.22;;
80409;SDS011;69746;45.596;10.154;2023-05-29T00:55:21;10.35;;;5.75;;
80409;SDS011;69746;45.596;10.154;2023-05-29T00:57:47;15.60;;;5.78;;
80409;SDS011;69746;45.596;10.154;2023-05-29T01:00:14;14.80;;;5.88;;
80409;SDS011;69746;45.596;10.154;2023-05-29T01:02:42;12.30;;;5.47;;
80409;SDS011;69746;45.596;10.154;2023-05-29T01:05:13;11.00;;;5.57;;
80409;SDS011;69746;45.596;10.154;2023-05-29T01:07:40;14.80;;;5.82;;
80409;SDS011;69746;45.596;10.154;2023-05-29T01:10:08;11.43;;;5.85;;
80409;SDS011;69746;45.596;10.154;2023-05-29T01:12:40;11.90;;;5.30;;
80409;SDS011;69746;45.596;10.154;2023-05-29T01:20:52;12.23;;;5.35;;
80409;SDS011;69746;45.596;10.154;2023-05-29T01:23:40;17.33;;;5.63;;
80409;SDS011;69746;45.596;10.154;2023-05-29T01:26:34;10.40;;;5.35;;
80409;SDS011;69746;45.596;10.154;2023-05-29T01:29:14;10.93;;;5.32;;
80409;SDS011;69746;45.596;10.154;2023-05-29T01:31:45;13.82;;;5.50;;
80409;SDS011;69746;45.596;10.154;2023-05-29T01:34:11;12.65;;;5.65;;
80409;SDS011;69746;45.596;10.154;2023-05-29T01:36:37;13.15;;;4.93;;
80409;SDS011;69746;45.596;10.154;2023-05-29T01:39:03;16.75;;;5.55;;
80409;SDS011;69746;45.596;10.154;2023-05-29T01:41:30;9.23;;;5.35;;
80409;SDS011;69746;45.596;10.154;2023-05-29T01:43:57;10.15;;;5.13;;
80409;SDS011;69746;45.596;10.154;2023-05-29T01:46:24;9.55;;;5.05;;
80409;SDS011;69746;45.596;10.154;2023-05-29T01:48:50;10.43;;;4.93;;
80409;SDS011;69746;45.596;10.154;2023-05-29T01:51:18;12.57;;;4.75;;
80409;SDS011;69746;45.596;10.154;2023-05-29T01:53:44;9.73;;;5.10;;
80409;SDS011;69746;45.596;10.154;2023-05-29T01:56:10;12.48;;;5.13;;
80409;SDS011;69746;45.596;10.154;2023-05-29T01:58:36;12.48;;;5.55;;
80409;SDS011;69746;45.596;10.154;2023-05-29T02:01:05;14.35;;;5.45;;
80409;SDS011;69746;45.596;10.154;2023-05-29T02:05:58;14.05;;;5.68;;
80409;SDS011;69746;45.596;10.154;2023-05-29T02:10:53;11.68;;;5.22;;
80409;SDS011;69746;45.596;10.154;2023-05-29T02:13:19;12.10;;;5.20;;
80409;SDS011;69746;45.596;10.154;2023-05-29T02:15:46;11.55;;;5.15;;
80409;SDS011;69746;45.596;10.154;2023-05-29T02:18:13;10.13;;;5.38;;
80409;SDS011;69746;45.596;10.154;2023-05-29T02:20:42;9.63;;;5.15;;
80409;SDS011;69746;45.596;10.154;2023-05-29T02:23:08;10.90;;;5.43;;
80409;SDS011;69746;45.596;10.154;2023-05-29T02:25:35;10.90;;;5.32;;
80409;SDS011;69746;45.596;10.154;2023-05-29T02:28:01;13.45;;;5.50;;
80409;SDS011;69746;45.596;10.154;2023-05-29T02:30:28;12.25;;;5.22;;
80409;SDS011;69746;45.596;10.154;2023-05-29T02:32:54;6.63;;;4.90;;
80409;SDS011;69746;45.596;10.154;2023-05-29T02:35:20;11.35;;;5.88;;
80409;SDS011;69746;45.596;10.154;2023-05-29T02:37:48;13.02;;;5.90;;
80409;SDS011;69746;45.596;10.154;2023-05-29T02:40:14;9.32;;;5.10;;
80409;SDS011;69746;45.596;10.154;2023-05-29T02:42:40;10.32;;;5.13;;
80409;SDS011;69746;45.596;10.154;2023-05-29T02:45:07;10.98;;;5.28;;
80409;SDS011;69746;45.596;10.154;2023-05-29T02:47:36;13.68;;;5.32;;
80409;SDS011;69746;45.596;10.154;2023-05-29T02:50:03;11.65;;;5.18;;
80409;SDS011;69746;45.596;10.154;2023-05-29T02:52:29;7.50;;;5.13;;
80409;SDS011;69746;45.596;10.154;2023-05-29T02:54:56;9.95;;;4.68;;
80409;SDS011;69746;45.596;10.154;2023-05-29T02:57:22;12.00;;;4.93;;
80409;SDS011;69746;45.596;10.154;2023-05-29T02:59:48;5.78;;;4.55;;
80409;SDS011;69746;45.596;10.154;2023-05-29T03:02:14;10.85;;;5.03;;
80409;SDS011;69746;45.596;10.154;2023-05-29T03:04:40;7.00;;;4.80;;
80409;SDS011;69746;45.596;10.154;2023-05-29T03:07:06;6.30;;;4.35;;
80409;SDS011;69746;45.596;10.154;2023-05-29T03:09:34;10.10;;;5.25;;
80409;SDS011;69746;45.596;10.154;2023-05-29T03:12:00;7.47;;;4.55;;
80409;SDS011;69746;45.596;10.154;2023-05-29T03:14:27;10.65;;;5.15;;
80409;SDS011;69746;45.596;10.154;2023-05-29T03:16:53;10.07;;;5.22;;
80409;SDS011;69746;45.596;10.154;2023-05-29T03:19:22;9.05;;;5.15;;
80409;SDS011;69746;45.596;10.154;2023-05-29T03:21:48;9.80;;;5.50;;
80409;SDS011;69746;45.596;10.154;2023-05-29T03:24:14;7.03;;;4.78;;
80409;SDS011;69746;45.596;10.154;2023-05-29T03:26:39;9.27;;;5.28;;
80409;SDS011;69746;45.596;10.154;2023-05-29T03:29:05;7.50;;;5.05;;
80409;SDS011;69746;45.596;10.154;2023-05-29T03:31:32;7.88;;;4.82;;
80409;SDS011;69746;45.596;10.154;2023-05-29T03:33:58;8.52;;;5.18;;
80409;SDS011;69746;45.596;10.154;2023-05-29T03:36:25;10.40;;;5.00;;
80409;SDS011;69746;45.596;10.154;2023-05-29T03:38:52;11.88;;;5.05;;
80409;SDS011;69746;45.596;10.154;2023-05-29T03:41:18;9.80;;;4.63;;
80409;SDS011;69746;45.596;10.154;2023-05-29T03:43:44;12.05;;;4.72;;
80409;SDS011;69746;45.596;10.154;2023-05-29T03:46:13;7.90;;;4.88;;
80409;SDS011;69746;45.596;10.154;2023-05-29T03:48:39;9.02;;;4.90;;
80409;SDS011;69746;45.596;10.154;2023-05-29T03:51:05;8.65;;;4.82;;
80409;SDS011;69746;45.596;10.154;2023-05-29T03:53:34;7.47;;;4.28;;
80409;SDS011;69746;45.596;10.154;2023-05-29T03:56:00;9.73;;;4.80;;
80409;SDS011;69746;45.596;10.154;2023-05-29T03:58:26;5.97;;;4.68;;
80409;SDS011;69746;45.596;10.154;2023-05-29T04:00:52;6.10;;;4.68;;
80409;SDS011;69746;45.596;10.154;2023-05-29T04:03:17;8.73;;;4.82;;
80409;SDS011;69746;45.596;10.154;2023-05-29T04:05:43;7.88;;;4.90;;
80409;SDS011;69746;45.596;10.154;2023-05-29T04:08:10;9.88;;;4.57;;
80409;SDS011;69746;45.596;10.154;2023-05-29T04:10:38;8.23;;;4.88;;
80409;SDS011;69746;45.596;10.154;2023-05-29T04:13:04;11.70;;;4.80;;
80409;SDS011;69746;45.596;10.154;2023-05-29T04:15:32;6.85;;;4.88;;
80409;SDS011;69746;45.596;10.154;2023-05-29T04:17:59;6.97;;;4.80;;
80409;SDS011;69746;45.596;10.154;2023-05-29T04:20:25;7.72;;;4.40;;
80409;SDS011;69746;45.596;10.154;2023-05-29T04:22:52;7.05;;;4.90;;
80409;SDS011;69746;45.596;10.154;2023-05-29T04:25:18;7.60;;;4.53;;
80409;SDS011;69746;45.596;10.154;2023-05-29T04:27:44;7.10;;;4.70;;
80409;SDS011;69746;45.596;10.154;2023-05-29T04:30:15;14.95;;;4.88;;
80409;SDS011;69746;45.596;10.154;2023-05-29T04:32:41;8.27;;;4.20;;
80409;SDS011;69746;45.596;10.154;2023-05-29T04:35:08;13.27;;;4.75;;
80409;SDS011;69746;45.596;10.154;2023-05-29T04:37:34;12.18;;;5.18;;
80409;SDS011;69746;45.596;10.154;2023-05-29T04:40:05;6.00;;;4.18;;
80409;SDS011;69746;45.596;10.154;2023-05-29T04:42:36;10.50;;;4.60;;
80409;SDS011;69746;45.596;10.154;2023-05-29T04:45:03;11.90;;;5.03;;
80409;SDS011;69746;45.596;10.154;2023-05-29T04:47:31;16.13;;;4.82;;
80409;SDS011;69746;45.596;10.154;2023-05-29T04:49:58;18.00;;;6.40;;
80409;SDS011;69746;45.596;10.154;2023-05-29T04:52:25;24.25;;;7.00;;
80409;SDS011;69746;45.596;10.154;2023-05-29T04:54:52;15.18;;;5.63;;
80409;SDS011;69746;45.596;10.154;2023-05-29T04:57:19;13.45;;;6.10;;
80409;SDS011;69746;45.596;10.154;2023-05-29T04:59:45;15.90;;;6.53;;
80409;SDS011;69746;45.596;10.154;2023-05-29T05:02:11;11.90;;;6.55;;
80409;SDS011;69746;45.596;10.154;2023-05-29T05:04:37;9.35;;;6.00;;
80409;SDS011;69746;45.596;10.154;2023-05-29T05:07:04;9.10;;;6.18;;
80409;SDS011;69746;45.596;10.154;2023-05-29T05:09:31;19.80;;;6.63;;
80409;SDS011;69746;45.596;10.154;2023-05-29T05:11:57;13.95;;;6.75;;
80409;SDS011;69746;45.596;10.154;2023-05-29T05:14:26;20.17;;;6.00;;
80409;SDS011;69746;45.596;10.154;2023-05-29T05:16:53;8.90;;;5.78;;
80409;SDS011;69746;45.596;10.154;2023-05-29T05:19:19;11.32;;;6.13;;
80409;SDS011;69746;45.596;10.154;2023-05-29T05:21:45;11.70;;;6.75;;
80409;SDS011;69746;45.596;10.154;2023-05-29T05:24:14;10.05;;;6.20;;
80409;SDS011;69746;45.596;10.154;2023-05-29T05:26:40;13.55;;;7.35;;
80409;SDS011;69746;45.596;10.154;2023-05-29T05:29:06;8.43;;;6.28;;
80409;SDS011;69746;45.596;10.154;2023-05-29T05:31:32;10.02;;;7.72;;
80409;SDS011;69746;45.596;10.154;2023-05-29T05:34:00;11.90;;;7.47;;
80409;SDS011;69746;45.596;10.154;2023-05-29T05:36:26;9.90;;;6.57;;
80409;SDS011;69746;45.596;10.154;2023-05-29T05:38:52;9.27;;;5.72;;
80409;SDS011;69746;45.596;10.154;2023-05-29T05:41:18;10.15;;;6.00;;
80409;SDS011;69746;45.596;10.154;2023-05-29T05:43:46;10.35;;;6.65;;
80409;SDS011;69746;45.596;10.154;2023-05-29T05:46:12;9.18;;;6.45;;
80409;SDS011;69746;45.596;10.154;2023-05-29T05:48:39;8.77;;;6.18;;
80409;SDS011;69746;45.596;10.154;2023-05-29T05:51:06;8.13;;;5.78;;
80409;SDS011;69746;45.596;10.154;2023-05-29T05:53:32;15.18;;;6.15;;
80409;SDS011;69746;45.596;10.154;2023-05-29T05:56:01;7.93;;;6.30;;
80409;SDS011;69746;45.596;10.154;2023-05-29T05:58:27;10.60;;;6.00;;
80409;SDS011;69746;45.596;10.154;2023-05-29T06:00:52;12.30;;;6.70;;
80409;SDS011;69746;45.596;10.154;2023-05-29T06:03:18;8.45;;;6.07;;
80409;SDS011;69746;45.596;10.154;2023-05-29T06:05:44;11.95;;;6.20;;
80409;SDS011;69746;45.596;10.154;2023-05-29T06:08:10;12.55;;;6.10;;
80409;SDS011;69746;45.596;10.154;2023-05-29T06:10:36;9.77;;;5.97;;
80409;SDS011;69746;45.596;10.154;2023-05-29T06:13:02;8.35;;;6.05;;
80409;SDS011;69746;45.596;10.154;2023-05-29T06:15:28;12.18;;;6.28;;
80409;SDS011;69746;45.596;10.154;2023-05-29T06:17:54;14.05;;;6.93;;
80409;SDS011;69746;45.596;10.154;2023-05-29T06:20:21;9.57;;;6.63;;
80409;SDS011;69746;45.596;10.154;2023-05-29T06:22:48;11.73;;;6.03;;
80409;SDS011;69746;45.596;10.154;2023-05-29T06:25:16;10.13;;;5.80;;
80409;SDS011;69746;45.596;10.154;2023-05-29T06:30:11;10.73;;;6.50;;
80409;SDS011;69746;45.596;10.154;2023-05-29T06:32:38;10.35;;;6.07;;
80409;SDS011;69746;45.596;10.154;2023-05-29T06:35:04;7.50;;;5.60;;
80409;SDS011;69746;45.596;10.154;2023-05-29T06:37:31;7.90;;;5.63;;
80409;SDS011;69746;45.596;10.154;2023-05-29T06:39:57;9.30;;;5.90;;
80409;SDS011;69746;45.596;10.154;2023-05-29T06:42:25;7.10;;;5.50;;
80409;SDS011;69746;45.596;10.154;2023-05-29T06:44:53;11.48;;;5.70;;
80409;SDS011;69746;45.596;10.154;2023-05-29T06:47:20;9.75;;;5.70;;
80409;SDS011;69746;45.596;10.154;2023-05-29T06:49:46;9.45;;;6.20;;
80409;SDS011;69746;45.596;10.154;2023-05-29T06:52:12;9.50;;;5.38;;
80409;SDS011;69746;45.596;10.154;2023-05-29T06:54:38;11.45;;;6.20;;
80409;SDS011;69746;45.596;10.154;2023-05-29T06:57:05;7.60;;;5.85;;
80409;SDS011;69746;45.596;10.154;2023-05-29T06:59:31;10.35;;;6.32;;
80409;SDS011;69746;45.596;10.154;2023-05-29T07:01:57;9.82;;;5.82;;
80409;SDS011;69746;45.596;10.154;2023-05-29T07:04:23;11.93;;;5.97;;
80409;SDS011;69746;45.596;10.154;2023-05-29T07:06:49;9.02;;;5.60;;
80409;SDS011;69746;45.596;10.154;2023-05-29T07:09:16;8.10;;;5.90;;
80409;SDS011;69746;45.596;10.154;2023-05-29T07:11:42;9.18;;;5.45;;
80409;SDS011;69746;45.596;10.154;2023-05-29T07:14:08;9.18;;;5.60;;
80409;SDS011;69746;45.596;10.154;2023-05-29T07:16:35;9.57;;;6.10;;
80409;SDS011;69746;45.596;10.154;2023-05-29T07:19:01;11.18;;;6.30;;
80409;SDS011;69746;45.596;10.154;2023-05-29T07:21:28;8.80;;;6.13;;
80409;SDS011;69746;45.596;10.154;2023-05-29T07:23:54;8.02;;;5.40;;
80409;SDS011;69746;45.596;10.154;2023-05-29T07:26:20;9.07;;;5.78;;
80409;SDS011;69746;45.596;10.154;2023-05-29T07:31:14;8.02;;;5.55;;
80409;SDS011;69746;45.596;10.154;2023-05-29T07:33:41;7.38;;;5.25;;
80409;SDS011;69746;45.596;10.154;2023-05-29T07:36:07;18.20;;;5.70;;
80409;SDS011;69746;45.596;10.154;2023-05-29T07:38:33;8.43;;;5.53;;
80409;SDS011;69746;45.596;10.154;2023-05-29T07:40:59;8.20;;;5.53;;
80409;SDS011;69746;45.596;10.154;2023-05-29T07:43:25;7.10;;;5.68;;
80409;SDS011;69746;45.596;10.154;2023-05-29T07:45:54;8.73;;;5.60;;
80409;SDS011;69746;45.596;10.154;2023-05-29T07:48:19;7.07;;;5.72;;
80409;SDS011;69746;45.596;10.154;2023-05-29T07:50:46;6.80;;;5.22;;
80409;SDS011;69746;45.596;10.154;2023-05-29T07:53:13;9.32;;;5.82;;
80409;SDS011;69746;45.596;10.154;2023-05-29T07:55:41;8.95;;;5.80;;
80409;SDS011;69746;45.596;10.154;2023-05-29T07:58:07;7.43;;;5.70;;
80409;SDS011;69746;45.596;10.154;2023-05-29T08:00:37;9.27;;;5.72;;
80409;SDS011;69746;45.596;10.154;2023-05-29T08:03:04;8.90;;;5.95;;
80409;SDS011;69746;45.596;10.154;2023-05-29T08:05:30;9.70;;;5.82;;
80409;SDS011;69746;45.596;10.154;2023-05-29T08:07:57;8.20;;;5.53;;
80409;SDS011;69746;45.596;10.154;2023-05-29T08:10:24;8.25;;;6.00;;
80409;SDS011;69746;45.596;10.154;2023-05-29T08:12:50;7.70;;;5.55;;
80409;SDS011;69746;45.596;10.154;2023-05-29T08:15:20;8.15;;;5.70;;
80409;SDS011;69746;45.596;10.154;2023-05-29T08:17:48;8.48;;;5.93;;
80409;SDS011;69746;45.596;10.154;2023-05-29T08:20:14;7.10;;;5.88;;
80409;SDS011;69746;45.596;10.154;2023-05-29T08:22:40;8.13;;;5.57;;
80409;SDS011;69746;45.596;10.154;2023-05-29T08:25:06;7.13;;;5.90;;
80409;SDS011;69746;45.596;10.154;2023-05-29T08:27:33;12.63;;;5.93;;
80409;SDS011;69746;45.596;10.154;2023-05-29T08:29:59;8.07;;;6.55;;
80409;SDS011;69746;45.596;10.154;2023-05-29T08:32:26;9.98;;;6.82;;
80409;SDS011;69746;45.596;10.154;2023-05-29T08:34:54;8.60;;;6.30;;
80409;SDS011;69746;45.596;10.154;2023-05-29T08:37:20;10.70;;;6.07;;
80409;SDS011;69746;45.596;10.154;2023-05-29T08:39:47;8.88;;;6.28;;
80409;SDS011;69746;45.596;10.154;2023-05-29T08:42:13;8.48;;;6.18;;
80409;SDS011;69746;45.596;10.154;2023-05-29T08:44:47;8.77;;;6.55;;
80409;SDS011;69746;45.596;10.154;2023-05-29T08:47:15;7.18;;;5.53;;
80409;SDS011;69746;45.596;10.154;2023-05-29T08:49:45;9.35;;;6.45;;
80409;SDS011;69746;45.596;10.154;2023-05-29T08:52:20;10.65;;;6.47;;
80409;SDS011;69746;45.596;10.154;2023-05-29T08:54:54;9.15;;;6.43;;
80409;SDS011;69746;45.596;10.154;2023-05-29T08:57:20;8.43;;;6.60;;
80409;SDS011;69746;45.596;10.154;2023-05-29T08:59:46;7.85;;;5.82;;
80409;SDS011;69746;45.596;10.154;2023-05-29T13:03:40;11.77;;;8.25;;
80409;SDS011;69746;45.596;10.154;2023-05-29T13:06:06;12.45;;;7.97;;
80409;SDS011;69746;45.596;10.154;2023-05-29T13:08:33;11.10;;;8.48;;
80409;SDS011;69746;45.596;10.154;2023-05-29T13:11:01;11.63;;;8.70;;
80409;SDS011;69746;45.596;10.154;2023-05-29T13:13:27;13.68;;;8.52;;
80409;SDS011;69746;45.596;10.154;2023-05-29T13:15:52;11.95;;;8.65;;
80409;SDS011;69746;45.596;10.154;2023-05-29T13:18:18;12.52;;;9.70;;
80409;SDS011;69746;45.596;10.154;2023-05-29T13:20:44;12.80;;;9.48;;
80409;SDS011;69746;45.596;10.154;2023-05-29T13:23:14;11.73;;;8.18;;
80409;SDS011;69746;45.596;10.154;2023-05-29T13:25:46;11.93;;;8.95;;
80409;SDS011;69746;45.596;10.154;2023-05-29T13:28:15;12.90;;;8.77;;
80409;SDS011;69746;45.596;10.154;2023-05-29T13:30:41;10.40;;;8.57;;
80409;SDS011;69746;45.596;10.154;2023-05-29T13:33:07;12.18;;;8.07;;
80409;SDS011;69746;45.596;10.154;2023-05-29T13:35:33;9.50;;;7.70;;
80409;SDS011;69746;45.596;10.154;2023-05-29T13:37:59;11.80;;;8.00;;
80409;SDS011;69746;45.596;10.154;2023-05-29T13:40:25;9.90;;;7.55;;
80409;SDS011;69746;45.596;10.154;2023-05-29T13:42:52;10.10;;;7.88;;
80409;SDS011;69746;45.596;10.154;2023-05-29T13:45:18;11.38;;;8.10;;
80409;SDS011;69746;45.596;10.154;2023-05-29T13:47:44;10.30;;;7.82;;
80409;SDS011;69746;45.596;10.154;2023-05-29T13:50:11;12.55;;;8.35;;
80409;SDS011;69746;45.596;10.154;2023-05-29T13:52:37;11.18;;;8.35;;
80409;SDS011;69746;45.596;10.154;2023-05-29T13:55:04;9.70;;;7.80;;
80409;SDS011;69746;45.596;10.154;2023-05-29T13:57:34;10.80;;;7.80;;
80409;SDS011;69746;45.596;10.154;2023-05-29T14:00:02;10.48;;;7.95;;
80409;SDS011;69746;45.596;10.154;2023-05-29T14:02:35;9.85;;;7.60;;
80409;SDS011;69746;45.596;10.154;2023-05-29T14:05:01;10.73;;;8.18;;
80409;SDS011;69746;45.596;10.154;2023-05-29T14:07:31;10.23;;;8.13;;
80409;SDS011;69746;45.596;10.154;2023-05-29T14:09:59;13.30;;;8.85;;
80409;SDS011;69746;45.596;10.154;2023-05-29T14:12:25;9.70;;;8.05;;
80409;SDS011;69746;45.596;10.154;2023-05-29T14:14:54;10.25;;;7.90;;
80409;SDS011;69746;45.596;10.154;2023-05-29T14:17:21;10.43;;;7.85;;
80409;SDS011;69746;45.596;10.154;2023-05-29T14:19:47;9.60;;;7.95;;
80409;SDS011;69746;45.596;10.154;2023-05-29T14:22:12;11.90;;;8.10;;
80409;SDS011;69746;45.596;10.154;2023-05-29T14:24:38;11.77;;;8.75;;
80409;SDS011;69746;45.596;10.154;2023-05-29T14:27:05;9.35;;;7.60;;
80409;SDS011;69746;45.596;10.154;2023-05-29T14:29:33;10.23;;;8.20;;
80409;SDS011;69746;45.596;10.154;2023-05-29T14:32:02;9.50;;;7.55;;
80409;SDS011;69746;45.596;10.154;2023-05-29T14:34:28;9.98;;;8.02;;
80409;SDS011;69746;45.596;10.154;2023-05-29T14:36:57;12.77;;;8.30;;
80409;SDS011;69746;45.596;10.154;2023-05-29T14:39:23;12.57;;;7.85;;
80409;SDS011;69746;45.596;10.154;2023-05-29T14:41:49;11.27;;;8.02;;
80409;SDS011;69746;45.596;10.154;2023-05-29T14:44:17;11.15;;;7.55;;
80409;SDS011;69746;45.596;10.154;2023-05-29T14:46:43;11.10;;;7.80;;
80409;SDS011;69746;45.596;10.154;2023-05-29T14:49:10;9.88;;;7.05;;
80409;SDS011;69746;45.596;10.154;2023-05-29T14:51:36;10.02;;;7.28;;
80409;SDS011;69746;45.596;10.154;2023-05-29T14:54:04;10.60;;;6.63;;
80409;SDS011;69746;45.596;10.154;2023-05-29T14:56:31;11.10;;;7.57;;
80409;SDS011;69746;45.596;10.154;2023-05-29T14:58:57;9.85;;;6.65;;
80409;SDS011;69746;45.596;10.154;2023-05-29T15:01:23;10.05;;;6.75;;
80409;SDS011;69746;45.596;10.154;2023-05-29T15:03:48;12.18;;;7.57;;
80409;SDS011;69746;45.596;10.154;2023-05-29T15:06:17;11.63;;;7.82;;
80409;SDS011;69746;45.596;10.154;2023-05-29T15:08:49;10.15;;;7.60;;
80409;SDS011;69746;45.596;10.154;2023-05-29T15:11:16;11.88;;;7.32;;
80409;SDS011;69746;45.596;10.154;2023-05-29T15:13:44;9.73;;;6.80;;
80409;SDS011;69746;45.596;10.154;2023-05-29T15:16:10;10.27;;;7.60;;
80409;SDS011;69746;45.596;10.154;2023-05-29T15:18:37;9.32;;;7.20;;
80409;SDS011;69746;45.596;10.154;2023-05-29T15:21:04;10.35;;;8.23;;
80409;SDS011;69746;45.596;10.154;2023-05-29T15:23:33;12.10;;;7.88;;
80409;SDS011;69746;45.596;10.154;2023-05-29T15:26:01;10.80;;;7.47;;
80409;SDS011;69746;45.596;10.154;2023-05-29T15:28:29;9.95;;;7.85;;
80409;SDS011;69746;45.596;10.154;2023-05-29T15:30:56;10.38;;;7.63;;
80409;SDS011;69746;45.596;10.154;2023-05-29T15:33:22;11.20;;;8.25;;
80409;SDS011;69746;45.596;10.154;2023-05-29T15:35:49;11.35;;;7.45;;
80409;SDS011;69746;45.596;10.154;2023-05-29T15:38:18;11.75;;;8.35;;
80409;SDS011;69746;45.596;10.154;2023-05-29T15:40:45;10.50;;;8.10;;
80409;SDS011;69746;45.596;10.154;2023-05-29T15:43:17;9.93;;;7.25;;
80409;SDS011;69746;45.596;10.154;2023-05-29T15:45:42;9.68;;;6.82;;
80409;SDS011;69746;45.596;10.154;2023-05-29T15:48:10;9.20;;;7.93;;
80409;SDS011;69746;45.596;10.154;2023-05-29T15:50:36;9.40;;;7.35;;
80409;SDS011;69746;45.596;10.154;2023-05-29T15:53:02;9.73;;;7.78;;
80409;SDS011;69746;45.596;10.154;2023-05-29T15:55:28;11.80;;;8.13;;
80409;SDS011;69746;45.596;10.154;2023-05-29T15:57:55;9.07;;;7.43;;
80409;SDS011;69746;45.596;10.154;2023-05-29T16:00:21;8.40;;;6.80;;
80409;SDS011;69746;45.596;10.154;2023-05-29T16:02:47;12.27;;;7.85;;
80409;SDS011;69746;45.596;10.154;2023-05-29T16:05:15;10.00;;;6.75;;
80409;SDS011;69746;45.596;10.154;2023-05-29T16:07:43;9.38;;;6.95;;
80409;SDS011;69746;45.596;10.154;2023-05-29T16:10:12;8.77;;;6.95;;
80409;SDS011;69746;45.596;10.154;2023-05-29T16:12:43;8.18;;;6.65;;
80409;SDS011;69746;45.596;10.154;2023-05-29T16:15:11;10.75;;;6.80;;
80409;SDS011;69746;45.596;10.154;2023-05-29T16:17:37;8.50;;;6.88;;
80409;SDS011;69746;45.596;10.154;2023-05-29T16:20:04;8.75;;;7.22;;
80409;SDS011;69746;45.596;10.154;2023-05-29T16:22:31;10.75;;;6.78;;
80409;SDS011;69746;45.596;10.154;2023-05-29T16:24:59;10.23;;;6.50;;
80409;SDS011;69746;45.596;10.154;2023-05-29T16:27:25;10.48;;;6.65;;
80409;SDS011;69746;45.596;10.154;2023-05-29T16:29:54;8.43;;;6.55;;
80409;SDS011;69746;45.596;10.154;2023-05-29T16:32:23;9.15;;;6.57;;
80409;SDS011;69746;45.596;10.154;2023-05-29T16:34:50;9.88;;;6.85;;
80409;SDS011;69746;45.596;10.154;2023-05-29T16:37:20;8.23;;;6.40;;
80409;SDS011;69746;45.596;10.154;2023-05-29T16:39:46;8.80;;;6.65;;
80409;SDS011;69746;45.596;10.154;2023-05-29T16:42:13;6.45;;;5.65;;
80409;SDS011;69746;45.596;10.154;2023-05-29T16:44:40;9.15;;;7.00;;
80409;SDS011;69746;45.596;10.154;2023-05-29T16:47:08;8.10;;;6.65;;
80409;SDS011;69746;45.596;10.154;2023-05-29T16:49:39;9.05;;;7.22;;
80409;SDS011;69746;45.596;10.154;2023-05-29T16:52:08;9.95;;;7.20;;
80409;SDS011;69746;45.596;10.154;2023-05-29T16:54:34;11.00;;;7.00;;
80409;SDS011;69746;45.596;10.154;2023-05-29T16:57:07;7.22;;;5.88;;
80409;SDS011;69746;45.596;10.154;2023-05-29T16:59:34;8.48;;;5.85;;
80409;SDS011;69746;45.596;10.154;2023-05-29T17:02:01;8.00;;;6.00;;
80409;SDS011;69746;45.596;10.154;2023-05-29T17:04:27;7.97;;;6.13;;
80409;SDS011;69746;45.596;10.154;2023-05-29T17:06:53;7.53;;;6.07;;
80409;SDS011;69746;45.596;10.154;2023-05-29T17:09:19;7.88;;;5.45;;
80409;SDS011;69746;45.596;10.154;2023-05-29T17:11:47;8.13;;;6.07;;
80409;SDS011;69746;45.596;10.154;2023-05-29T17:14:13;7.63;;;6.20;;
80409;SDS011;69746;45.596;10.154;2023-05-29T17:16:41;6.97;;;6.00;;
80409;SDS011;69746;45.596;10.154;2023-05-29T17:19:11;7.75;;;5.93;;
80409;SDS011;69746;45.596;10.154;2023-05-29T17:21:37;10.00;;;7.25;;
80409;SDS011;69746;45.596;10.154;2023-05-29T17:24:06;7.28;;;6.03;;
80409;SDS011;69746;45.596;10.154;2023-05-29T17:26:33;8.45;;;6.38;;
80409;SDS011;69746;45.596;10.154;2023-05-29T17:29:05;8.05;;;5.70;;
80409;SDS011;69746;45.596;10.154;2023-05-29T17:31:32;7.10;;;5.30;;
80409;SDS011;69746;45.596;10.154;2023-05-29T17:33:58;8.68;;;6.30;;
80409;SDS011;69746;45.596;10.154;2023-05-29T17:36:24;8.07;;;6.03;;
80409;SDS011;69746;45.596;10.154;2023-05-29T17:38:50;7.97;;;6.30;;
80409;SDS011;69746;45.596;10.154;2023-05-29T17:41:17;9.18;;;6.25;;
80409;SDS011;69746;45.596;10.154;2023-05-29T17:43:44;8.60;;;6.20;;
80409;SDS011;69746;45.596;10.154;2023-05-29T17:46:10;8.25;;;5.70;;
80409;SDS011;69746;45.596;10.154;2023-05-29T17:48:36;8.88;;;6.22;;
80409;SDS011;69746;45.596;10.154;2023-05-29T17:51:03;6.47;;;5.78;;
80409;SDS011;69746;45.596;10.154;2023-05-29T17:53:29;8.18;;;5.50;;
80409;SDS011;69746;45.596;10.154;2023-05-29T17:55:55;6.85;;;6.03;;
80409;SDS011;69746;45.596;10.154;2023-05-29T17:58:22;7.20;;;5.40;;
80409;SDS011;69746;45.596;10.154;2023-05-29T18:00:48;9.00;;;6.05;;
80409;SDS011;69746;45.596;10.154;2023-05-29T18:03:16;9.73;;;5.57;;
80409;SDS011;69746;45.596;10.154;2023-05-29T18:05:42;7.97;;;6.07;;
80409;SDS011;69746;45.596;10.154;2023-05-29T18:08:11;8.60;;;5.95;;
80409;SDS011;69746;45.596;10.154;2023-05-29T18:10:37;7.10;;;5.85;;
80409;SDS011;69746;45.596;10.154;2023-05-29T18:13:04;6.95;;;5.45;;
80409;SDS011;69746;45.596;10.154;2023-05-29T18:15:33;7.95;;;5.63;;
80409;SDS011;69746;45.596;10.154;2023-05-29T18:17:59;8.27;;;5.63;;
80409;SDS011;69746;45.596;10.154;2023-05-29T18:20:26;7.75;;;6.03;;
80409;SDS011;69746;45.596;10.154;2023-05-29T18:22:55;10.63;;;6.22;;
80409;SDS011;69746;45.596;10.154;2023-05-29T18:25:21;7.32;;;5.85;;
80409;SDS011;69746;45.596;10.154;2023-05-29T18:27:48;7.78;;;6.20;;
80409;SDS011;69746;45.596;10.154;2023-05-29T18:30:15;10.63;;;6.38;;
80409;SDS011;69746;45.596;10.154;2023-05-29T18:32:41;8.68;;;6.15;;
80409;SDS011;69746;45.596;10.154;2023-05-29T18:35:07;8.80;;;6.30;;
80409;SDS011;69746;45.596;10.154;2023-05-29T18:37:34;9.25;;;6.68;;
80409;SDS011;69746;45.596;10.154;2023-05-29T18:40:01;9.05;;;6.32;;
80409;SDS011;69746;45.596;10.154;2023-05-29T18:42:27;8.95;;;6.18;;
80409;SDS011;69746;45.596;10.154;2023-05-29T18:44:54;9.73;;;6.60;;